sensor_id;sensor_type;location;lat;lon;timestamp;P1;durP1;ratioP1;P2;durP2;ratioP2
64199;SDS011;50516;52.272;5.136;2023-07-31T00:02:17;7.85;;;3.03;;
64199;SDS011;50516;52.272;5.136;2023-07-31T00:04:42;9.30;;;2.85;;
64199;SDS011;50516;52.272;5.136;2023-07-31T00:07:07;5.32;;;2.88;;
64199;SDS011;50516;52.272;5.136;2023-07-31T00:09:33;13.45;;;3.83;;
64199;SDS011;50516;52.272;5.136;2023-07-31T00:11:58;10.63;;;3.67;;
64199;SDS011;50516;52.272;5.136;2023-07-31T00:14:24;10.57;;;3.55;;
64199;SDS011;50516;52.272;5.136;2023-07-31T00:16:49;13.73;;;4.00;;
64199;SDS011;50516;52.272;5.136;2023-07-31T00:19:15;11.45;;;3.85;;
64199;SDS011;50516;52.272;5.136;2023-07-31T00:21:40;12.20;;;3.70;;
64199;SDS011;50516;52.272;5.136;2023-07-31T00:24:05;25.17;;;4.85;;
64199;SDS011;50516;52.272;5.136;2023-07-31T00:26:31;10.93;;;4.03;;
64199;SDS011;50516;52.272;5.136;2023-07-31T00:28:56;15.52;;;4.20;;
64199;SDS011;50516;52.272;5.136;2023-07-31T00:31:21;14.93;;;3.95;;
64199;SDS011;50516;52.272;5.136;2023-07-31T00:33:47;13.75;;;4.22;;
64199;SDS011;50516;52.272;5.136;2023-07-31T00:36:12;10.82;;;3.92;;
64199;SDS011;50516;52.272;5.136;2023-07-31T00:38:37;13.95;;;4.68;;
64199;SDS011;50516;52.272;5.136;2023-07-31T00:41:03;11.50;;;4.05;;
64199;SDS011;50516;52.272;5.136;2023-07-31T00:43:28;16.25;;;4.60;;
64199;SDS011;50516;52.272;5.136;2023-07-31T00:45:53;18.85;;;5.90;;
64199;SDS011;50516;52.272;5.136;2023-07-31T00:48:19;16.58;;;6.95;;
64199;SDS011;50516;52.272;5.136;2023-07-31T00:50:44;18.48;;;6.25;;
64199;SDS011;50516;52.272;5.136;2023-07-31T00:53:10;22.90;;;6.93;;
64199;SDS011;50516;52.272;5.136;2023-07-31T00:55:35;13.85;;;6.43;;
64199;SDS011;50516;52.272;5.136;2023-07-31T00:58:01;16.27;;;7.00;;
64199;SDS011;50516;52.272;5.136;2023-07-31T01:00:26;21.73;;;6.38;;
64199;SDS011;50516;52.272;5.136;2023-07-31T01:02:51;21.40;;;6.03;;
64199;SDS011;50516;52.272;5.136;2023-07-31T01:05:19;13.48;;;5.47;;
64199;SDS011;50516;52.272;5.136;2023-07-31T01:11:15;14.38;;;5.03;;
64199;SDS011;50516;52.272;5.136;2023-07-31T01:13:44;16.42;;;5.50;;
64199;SDS011;50516;52.272;5.136;2023-07-31T01:16:11;15.93;;;5.22;;
64199;SDS011;50516;52.272;5.136;2023-07-31T01:18:36;11.45;;;4.47;;
64199;SDS011;50516;52.272;5.136;2023-07-31T01:21:22;14.20;;;5.43;;
64199;SDS011;50516;52.272;5.136;2023-07-31T01:24:19;12.65;;;4.60;;
64199;SDS011;50516;52.272;5.136;2023-07-31T01:26:47;10.63;;;4.25;;
64199;SDS011;50516;52.272;5.136;2023-07-31T01:32:17;18.73;;;4.82;;
64199;SDS011;50516;52.272;5.136;2023-07-31T01:34:43;14.93;;;5.28;;
64199;SDS011;50516;52.272;5.136;2023-07-31T01:37:09;13.48;;;5.30;;
64199;SDS011;50516;52.272;5.136;2023-07-31T01:39:34;15.75;;;5.53;;
64199;SDS011;50516;52.272;5.136;2023-07-31T01:41:59;14.70;;;5.30;;
64199;SDS011;50516;52.272;5.136;2023-07-31T01:44:25;15.75;;;5.35;;
64199;SDS011;50516;52.272;5.136;2023-07-31T01:46:50;11.80;;;5.47;;
64199;SDS011;50516;52.272;5.136;2023-07-31T01:49:15;15.45;;;6.10;;
64199;SDS011;50516;52.272;5.136;2023-07-31T01:51:41;21.05;;;6.57;;
64199;SDS011;50516;52.272;5.136;2023-07-31T01:54:06;15.93;;;6.28;;
64199;SDS011;50516;52.272;5.136;2023-07-31T01:56:31;16.88;;;5.18;;
64199;SDS011;50516;52.272;5.136;2023-07-31T01:58:57;20.00;;;7.55;;
64199;SDS011;50516;52.272;5.136;2023-07-31T02:01:22;17.17;;;6.50;;
64199;SDS011;50516;52.272;5.136;2023-07-31T02:03:48;27.67;;;7.95;;
64199;SDS011;50516;52.272;5.136;2023-07-31T02:06:13;22.45;;;7.57;;
64199;SDS011;50516;52.272;5.136;2023-07-31T02:08:39;23.45;;;8.38;;
64199;SDS011;50516;52.272;5.136;2023-07-31T02:11:04;23.23;;;7.93;;
64199;SDS011;50516;52.272;5.136;2023-07-31T02:13:29;21.70;;;8.13;;
64199;SDS011;50516;52.272;5.136;2023-07-31T02:15:55;25.17;;;8.13;;
64199;SDS011;50516;52.272;5.136;2023-07-31T02:18:20;25.42;;;7.97;;
64199;SDS011;50516;52.272;5.136;2023-07-31T02:20:50;26.05;;;8.43;;
64199;SDS011;50516;52.272;5.136;2023-07-31T02:23:16;30.92;;;8.63;;
64199;SDS011;50516;52.272;5.136;2023-07-31T02:25:45;25.58;;;10.02;;
64199;SDS011;50516;52.272;5.136;2023-07-31T02:28:10;25.42;;;9.45;;
64199;SDS011;50516;52.272;5.136;2023-07-31T02:30:36;35.53;;;12.75;;
64199;SDS011;50516;52.272;5.136;2023-07-31T02:33:01;31.80;;;9.23;;
64199;SDS011;50516;52.272;5.136;2023-07-31T02:35:27;27.80;;;9.18;;
64199;SDS011;50516;52.272;5.136;2023-07-31T02:37:52;33.67;;;10.73;;
64199;SDS011;50516;52.272;5.136;2023-07-31T02:40:17;25.60;;;9.85;;
64199;SDS011;50516;52.272;5.136;2023-07-31T02:42:43;23.58;;;7.72;;
64199;SDS011;50516;52.272;5.136;2023-07-31T02:45:08;25.48;;;9.07;;
64199;SDS011;50516;52.272;5.136;2023-07-31T02:47:34;25.23;;;8.77;;
64199;SDS011;50516;52.272;5.136;2023-07-31T02:49:59;34.10;;;9.05;;
64199;SDS011;50516;52.272;5.136;2023-07-31T02:52:25;40.33;;;9.73;;
64199;SDS011;50516;52.272;5.136;2023-07-31T02:54:50;26.60;;;9.63;;
64199;SDS011;50516;52.272;5.136;2023-07-31T02:57:16;34.75;;;9.88;;
64199;SDS011;50516;52.272;5.136;2023-07-31T02:59:41;29.58;;;9.52;;
64199;SDS011;50516;52.272;5.136;2023-07-31T03:02:06;34.22;;;9.60;;
64199;SDS011;50516;52.272;5.136;2023-07-31T03:04:32;26.83;;;9.77;;
64199;SDS011;50516;52.272;5.136;2023-07-31T03:06:57;32.33;;;9.70;;
64199;SDS011;50516;52.272;5.136;2023-07-31T03:09:22;31.15;;;8.85;;
64199;SDS011;50516;52.272;5.136;2023-07-31T03:11:48;29.00;;;9.07;;
64199;SDS011;50516;52.272;5.136;2023-07-31T03:14:13;36.35;;;9.10;;
64199;SDS011;50516;52.272;5.136;2023-07-31T03:16:38;31.25;;;10.48;;
64199;SDS011;50516;52.272;5.136;2023-07-31T03:19:04;23.67;;;8.68;;
64199;SDS011;50516;52.272;5.136;2023-07-31T03:21:29;31.90;;;9.13;;
64199;SDS011;50516;52.272;5.136;2023-07-31T03:23:54;33.03;;;10.45;;
64199;SDS011;50516;52.272;5.136;2023-07-31T03:26:19;28.83;;;9.05;;
64199;SDS011;50516;52.272;5.136;2023-07-31T03:28:45;32.75;;;10.38;;
64199;SDS011;50516;52.272;5.136;2023-07-31T03:31:10;35.05;;;9.25;;
64199;SDS011;50516;52.272;5.136;2023-07-31T03:33:36;32.92;;;9.20;;
64199;SDS011;50516;52.272;5.136;2023-07-31T03:36:01;26.15;;;8.95;;
64199;SDS011;50516;52.272;5.136;2023-07-31T03:38:27;28.60;;;9.77;;
64199;SDS011;50516;52.272;5.136;2023-07-31T03:40:52;25.95;;;9.32;;
64199;SDS011;50516;52.272;5.136;2023-07-31T03:43:18;36.38;;;10.00;;
64199;SDS011;50516;52.272;5.136;2023-07-31T03:45:43;33.72;;;10.77;;
64199;SDS011;50516;52.272;5.136;2023-07-31T03:48:09;35.58;;;10.45;;
64199;SDS011;50516;52.272;5.136;2023-07-31T03:50:34;34.65;;;9.60;;
64199;SDS011;50516;52.272;5.136;2023-07-31T03:52:59;29.27;;;9.75;;
64199;SDS011;50516;52.272;5.136;2023-07-31T03:55:25;32.58;;;9.20;;
64199;SDS011;50516;52.272;5.136;2023-07-31T03:57:50;34.88;;;10.23;;
64199;SDS011;50516;52.272;5.136;2023-07-31T04:00:15;31.25;;;10.02;;
64199;SDS011;50516;52.272;5.136;2023-07-31T04:02:41;32.38;;;10.07;;
64199;SDS011;50516;52.272;5.136;2023-07-31T04:05:06;28.92;;;9.18;;
64199;SDS011;50516;52.272;5.136;2023-07-31T04:07:32;30.83;;;9.93;;
64199;SDS011;50516;52.272;5.136;2023-07-31T04:09:57;34.03;;;9.75;;
64199;SDS011;50516;52.272;5.136;2023-07-31T04:12:23;30.13;;;9.35;;
64199;SDS011;50516;52.272;5.136;2023-07-31T04:14:48;28.63;;;8.85;;
64199;SDS011;50516;52.272;5.136;2023-07-31T04:17:13;28.42;;;9.15;;
64199;SDS011;50516;52.272;5.136;2023-07-31T04:19:39;28.38;;;9.50;;
64199;SDS011;50516;52.272;5.136;2023-07-31T04:22:04;26.35;;;9.00;;
64199;SDS011;50516;52.272;5.136;2023-07-31T04:24:29;32.45;;;9.38;;
64199;SDS011;50516;52.272;5.136;2023-07-31T04:26:55;28.75;;;8.85;;
64199;SDS011;50516;52.272;5.136;2023-07-31T04:29:21;28.83;;;9.57;;
64199;SDS011;50516;52.272;5.136;2023-07-31T04:31:47;37.22;;;10.93;;
64199;SDS011;50516;52.272;5.136;2023-07-31T04:34:13;24.95;;;8.38;;
64199;SDS011;50516;52.272;5.136;2023-07-31T04:36:38;30.45;;;9.93;;
64199;SDS011;50516;52.272;5.136;2023-07-31T04:39:03;33.50;;;8.70;;
64199;SDS011;50516;52.272;5.136;2023-07-31T04:41:29;28.55;;;8.35;;
64199;SDS011;50516;52.272;5.136;2023-07-31T04:43:54;27.33;;;8.23;;
64199;SDS011;50516;52.272;5.136;2023-07-31T04:46:19;22.90;;;7.47;;
64199;SDS011;50516;52.272;5.136;2023-07-31T04:48:45;25.15;;;9.25;;
64199;SDS011;50516;52.272;5.136;2023-07-31T04:51:10;24.65;;;7.75;;
64199;SDS011;50516;52.272;5.136;2023-07-31T04:53:36;28.10;;;9.25;;
64199;SDS011;50516;52.272;5.136;2023-07-31T04:56:02;28.30;;;7.50;;
64199;SDS011;50516;52.272;5.136;2023-07-31T04:58:28;22.15;;;8.55;;
64199;SDS011;50516;52.272;5.136;2023-07-31T05:00:53;20.55;;;6.93;;
64199;SDS011;50516;52.272;5.136;2023-07-31T05:03:18;20.42;;;7.35;;
64199;SDS011;50516;52.272;5.136;2023-07-31T05:05:44;19.45;;;7.03;;
64199;SDS011;50516;52.272;5.136;2023-07-31T05:08:09;15.98;;;6.72;;
64199;SDS011;50516;52.272;5.136;2023-07-31T05:10:35;21.17;;;6.80;;
64199;SDS011;50516;52.272;5.136;2023-07-31T05:13:00;13.73;;;6.80;;
64199;SDS011;50516;52.272;5.136;2023-07-31T05:15:25;15.02;;;7.18;;
64199;SDS011;50516;52.272;5.136;2023-07-31T05:17:51;11.35;;;5.70;;
64199;SDS011;50516;52.272;5.136;2023-07-31T05:20:16;11.13;;;5.68;;
64199;SDS011;50516;52.272;5.136;2023-07-31T05:22:41;16.23;;;5.95;;
64199;SDS011;50516;52.272;5.136;2023-07-31T05:25:07;11.00;;;5.30;;
64199;SDS011;50516;52.272;5.136;2023-07-31T05:27:32;12.30;;;5.85;;
64199;SDS011;50516;52.272;5.136;2023-07-31T05:29:58;9.90;;;5.88;;
64199;SDS011;50516;52.272;5.136;2023-07-31T05:32:23;11.95;;;5.20;;
64199;SDS011;50516;52.272;5.136;2023-07-31T05:34:52;14.63;;;5.78;;
64199;SDS011;50516;52.272;5.136;2023-07-31T05:37:18;13.15;;;5.82;;
64199;SDS011;50516;52.272;5.136;2023-07-31T05:39:43;11.05;;;5.45;;
64199;SDS011;50516;52.272;5.136;2023-07-31T05:42:09;11.05;;;4.75;;
64199;SDS011;50516;52.272;5.136;2023-07-31T05:44:34;9.23;;;5.22;;
64199;SDS011;50516;52.272;5.136;2023-07-31T05:46:59;9.30;;;4.75;;
64199;SDS011;50516;52.272;5.136;2023-07-31T05:49:25;9.73;;;4.47;;
64199;SDS011;50516;52.272;5.136;2023-07-31T05:51:50;8.77;;;4.43;;
64199;SDS011;50516;52.272;5.136;2023-07-31T05:54:15;10.80;;;4.50;;
64199;SDS011;50516;52.272;5.136;2023-07-31T05:56:41;9.00;;;4.90;;
64199;SDS011;50516;52.272;5.136;2023-07-31T05:59:06;8.05;;;4.05;;
64199;SDS011;50516;52.272;5.136;2023-07-31T06:01:31;8.63;;;4.20;;
64199;SDS011;50516;52.272;5.136;2023-07-31T06:03:57;8.77;;;4.22;;
64199;SDS011;50516;52.272;5.136;2023-07-31T06:06:22;12.90;;;4.82;;
64199;SDS011;50516;52.272;5.136;2023-07-31T06:08:47;10.75;;;4.63;;
64199;SDS011;50516;52.272;5.136;2023-07-31T06:11:13;11.57;;;4.53;;
64199;SDS011;50516;52.272;5.136;2023-07-31T06:13:38;9.57;;;4.40;;
64199;SDS011;50516;52.272;5.136;2023-07-31T06:16:04;9.43;;;4.25;;
64199;SDS011;50516;52.272;5.136;2023-07-31T06:18:32;8.00;;;4.63;;
64199;SDS011;50516;52.272;5.136;2023-07-31T06:20:57;8.55;;;4.47;;
64199;SDS011;50516;52.272;5.136;2023-07-31T06:23:23;11.57;;;4.88;;
64199;SDS011;50516;52.272;5.136;2023-07-31T06:25:48;8.05;;;3.97;;
64199;SDS011;50516;52.272;5.136;2023-07-31T06:28:13;10.80;;;4.22;;
64199;SDS011;50516;52.272;5.136;2023-07-31T06:30:39;10.80;;;5.13;;
64199;SDS011;50516;52.272;5.136;2023-07-31T06:33:04;6.40;;;3.40;;
64199;SDS011;50516;52.272;5.136;2023-07-31T06:35:29;10.05;;;3.95;;
64199;SDS011;50516;52.272;5.136;2023-07-31T06:37:55;10.27;;;3.75;;
64199;SDS011;50516;52.272;5.136;2023-07-31T06:40:20;10.18;;;4.25;;
64199;SDS011;50516;52.272;5.136;2023-07-31T06:42:47;9.05;;;3.60;;
64199;SDS011;50516;52.272;5.136;2023-07-31T06:45:12;5.75;;;3.50;;
64199;SDS011;50516;52.272;5.136;2023-07-31T06:47:37;8.38;;;3.58;;
64199;SDS011;50516;52.272;5.136;2023-07-31T06:50:03;5.90;;;3.15;;
64199;SDS011;50516;52.272;5.136;2023-07-31T06:52:29;8.25;;;3.47;;
64199;SDS011;50516;52.272;5.136;2023-07-31T06:55:04;9.85;;;3.50;;
64199;SDS011;50516;52.272;5.136;2023-07-31T06:57:45;6.13;;;2.85;;
64199;SDS011;50516;52.272;5.136;2023-07-31T07:00:14;5.93;;;3.00;;
64199;SDS011;50516;52.272;5.136;2023-07-31T07:02:39;5.93;;;3.03;;
64199;SDS011;50516;52.272;5.136;2023-07-31T07:05:06;4.10;;;2.78;;
64199;SDS011;50516;52.272;5.136;2023-07-31T07:07:32;7.40;;;2.85;;
64199;SDS011;50516;52.272;5.136;2023-07-31T07:09:57;5.30;;;2.90;;
64199;SDS011;50516;52.272;5.136;2023-07-31T07:12:24;5.28;;;2.83;;
64199;SDS011;50516;52.272;5.136;2023-07-31T07:14:50;4.68;;;2.65;;
64199;SDS011;50516;52.272;5.136;2023-07-31T07:17:15;4.18;;;2.80;;
64199;SDS011;50516;52.272;5.136;2023-07-31T07:19:40;4.30;;;2.85;;
64199;SDS011;50516;52.272;5.136;2023-07-31T07:22:07;5.05;;;2.95;;
64199;SDS011;50516;52.272;5.136;2023-07-31T07:24:32;5.57;;;3.30;;
64199;SDS011;50516;52.272;5.136;2023-07-31T07:26:57;7.20;;;3.00;;
64199;SDS011;50516;52.272;5.136;2023-07-31T07:29:23;4.63;;;2.90;;
64199;SDS011;50516;52.272;5.136;2023-07-31T07:31:48;5.53;;;2.85;;
64199;SDS011;50516;52.272;5.136;2023-07-31T07:34:13;3.60;;;2.55;;
64199;SDS011;50516;52.272;5.136;2023-07-31T07:36:39;6.28;;;2.63;;
64199;SDS011;50516;52.272;5.136;2023-07-31T07:39:04;4.22;;;2.92;;
64199;SDS011;50516;52.272;5.136;2023-07-31T07:41:30;4.63;;;2.70;;
64199;SDS011;50516;52.272;5.136;2023-07-31T07:43:55;4.88;;;2.55;;
64199;SDS011;50516;52.272;5.136;2023-07-31T07:46:20;6.15;;;2.40;;
64199;SDS011;50516;52.272;5.136;2023-07-31T07:48:46;4.47;;;2.25;;
64199;SDS011;50516;52.272;5.136;2023-07-31T07:51:11;3.88;;;2.40;;
64199;SDS011;50516;52.272;5.136;2023-07-31T07:53:36;3.10;;;2.08;;
64199;SDS011;50516;52.272;5.136;2023-07-31T07:56:02;3.15;;;2.20;;
64199;SDS011;50516;52.272;5.136;2023-07-31T07:58:27;3.35;;;2.00;;
64199;SDS011;50516;52.272;5.136;2023-07-31T08:00:52;4.70;;;2.20;;
64199;SDS011;50516;52.272;5.136;2023-07-31T08:03:18;2.97;;;2.15;;
64199;SDS011;50516;52.272;5.136;2023-07-31T08:05:43;4.80;;;2.10;;
64199;SDS011;50516;52.272;5.136;2023-07-31T08:08:13;2.58;;;2.10;;
64199;SDS011;50516;52.272;5.136;2023-07-31T08:10:40;3.47;;;2.30;;
64199;SDS011;50516;52.272;5.136;2023-07-31T08:13:06;2.53;;;1.80;;
64199;SDS011;50516;52.272;5.136;2023-07-31T08:15:31;2.50;;;1.77;;
64199;SDS011;50516;52.272;5.136;2023-07-31T08:17:56;2.80;;;1.70;;
64199;SDS011;50516;52.272;5.136;2023-07-31T08:20:21;2.83;;;1.90;;
64199;SDS011;50516;52.272;5.136;2023-07-31T08:22:47;2.85;;;2.03;;
64199;SDS011;50516;52.272;5.136;2023-07-31T08:25:12;2.25;;;1.77;;
64199;SDS011;50516;52.272;5.136;2023-07-31T08:27:37;2.00;;;1.80;;
64199;SDS011;50516;52.272;5.136;2023-07-31T08:30:03;4.78;;;2.03;;
64199;SDS011;50516;52.272;5.136;2023-07-31T08:32:28;2.22;;;1.90;;
64199;SDS011;50516;52.272;5.136;2023-07-31T08:34:54;2.45;;;1.83;;
64199;SDS011;50516;52.272;5.136;2023-07-31T08:37:19;3.85;;;1.80;;
64199;SDS011;50516;52.272;5.136;2023-07-31T08:39:44;3.35;;;1.60;;
64199;SDS011;50516;52.272;5.136;2023-07-31T08:42:09;3.53;;;1.73;;
64199;SDS011;50516;52.272;5.136;2023-07-31T08:44:35;2.85;;;1.70;;
64199;SDS011;50516;52.272;5.136;2023-07-31T08:47:01;3.72;;;1.77;;
64199;SDS011;50516;52.272;5.136;2023-07-31T08:49:27;1.60;;;1.50;;
64199;SDS011;50516;52.272;5.136;2023-07-31T08:51:54;3.17;;;1.77;;
64199;SDS011;50516;52.272;5.136;2023-07-31T08:54:20;2.63;;;1.58;;
64199;SDS011;50516;52.272;5.136;2023-07-31T08:56:46;1.77;;;1.45;;
64199;SDS011;50516;52.272;5.136;2023-07-31T08:59:11;1.73;;;1.30;;
64199;SDS011;50516;52.272;5.136;2023-07-31T09:01:41;1.75;;;1.55;;
64199;SDS011;50516;52.272;5.136;2023-07-31T09:04:12;1.83;;;1.33;;
64199;SDS011;50516;52.272;5.136;2023-07-31T09:06:41;2.17;;;1.70;;
64199;SDS011;50516;52.272;5.136;2023-07-31T09:09:07;2.97;;;1.60;;
64199;SDS011;50516;52.272;5.136;2023-07-31T09:11:34;3.03;;;1.77;;
64199;SDS011;50516;52.272;5.136;2023-07-31T09:13:59;1.65;;;1.40;;
64199;SDS011;50516;52.272;5.136;2023-07-31T09:16:27;2.03;;;1.27;;
64199;SDS011;50516;52.272;5.136;2023-07-31T09:18:56;1.10;;;1.10;;
64199;SDS011;50516;52.272;5.136;2023-07-31T09:21:22;1.75;;;1.20;;
64199;SDS011;50516;52.272;5.136;2023-07-31T09:23:49;1.80;;;1.23;;
64199;SDS011;50516;52.272;5.136;2023-07-31T09:26:28;1.95;;;0.90;;
64199;SDS011;50516;52.272;5.136;2023-07-31T09:29:06;3.30;;;1.48;;
64199;SDS011;50516;52.272;5.136;2023-07-31T09:31:43;1.40;;;1.20;;
64199;SDS011;50516;52.272;5.136;2023-07-31T09:34:08;2.05;;;1.83;;
64199;SDS011;50516;52.272;5.136;2023-07-31T09:36:46;2.15;;;1.50;;
64199;SDS011;50516;52.272;5.136;2023-07-31T09:39:13;2.97;;;1.60;;
64199;SDS011;50516;52.272;5.136;2023-07-31T09:41:47;3.63;;;1.88;;
64199;SDS011;50516;52.272;5.136;2023-07-31T09:44:18;2.63;;;1.67;;
64199;SDS011;50516;52.272;5.136;2023-07-31T09:46:43;2.65;;;1.85;;
64199;SDS011;50516;52.272;5.136;2023-07-31T09:49:09;5.43;;;2.35;;
64199;SDS011;50516;52.272;5.136;2023-07-31T09:51:36;5.40;;;2.20;;
64199;SDS011;50516;52.272;5.136;2023-07-31T09:54:04;3.30;;;2.15;;
64199;SDS011;50516;52.272;5.136;2023-07-31T09:56:46;2.92;;;1.83;;
64199;SDS011;50516;52.272;5.136;2023-07-31T09:59:16;4.95;;;1.90;;
64199;SDS011;50516;52.272;5.136;2023-07-31T10:01:44;4.47;;;2.28;;
64199;SDS011;50516;52.272;5.136;2023-07-31T10:04:13;5.28;;;2.83;;
64199;SDS011;50516;52.272;5.136;2023-07-31T10:06:40;5.32;;;2.28;;
64199;SDS011;50516;52.272;5.136;2023-07-31T10:09:10;5.75;;;2.85;;
64199;SDS011;50516;52.272;5.136;2023-07-31T10:11:38;7.90;;;3.63;;
64199;SDS011;50516;52.272;5.136;2023-07-31T10:14:09;6.32;;;2.95;;
64199;SDS011;50516;52.272;5.136;2023-07-31T10:16:37;7.15;;;2.63;;
64199;SDS011;50516;52.272;5.136;2023-07-31T10:19:03;9.00;;;3.28;;
64199;SDS011;50516;52.272;5.136;2023-07-31T10:21:31;10.55;;;3.70;;
64199;SDS011;50516;52.272;5.136;2023-07-31T10:24:01;7.38;;;3.40;;
64199;SDS011;50516;52.272;5.136;2023-07-31T10:26:28;12.45;;;4.30;;
64199;SDS011;50516;52.272;5.136;2023-07-31T10:28:55;8.68;;;3.72;;
64199;SDS011;50516;52.272;5.136;2023-07-31T10:31:22;10.05;;;4.10;;
64199;SDS011;50516;52.272;5.136;2023-07-31T10:33:49;12.57;;;4.70;;
64199;SDS011;50516;52.272;5.136;2023-07-31T10:36:19;9.07;;;3.45;;
64199;SDS011;50516;52.272;5.136;2023-07-31T10:38:45;7.55;;;3.17;;
64199;SDS011;50516;52.272;5.136;2023-07-31T10:41:13;7.90;;;3.60;;
64199;SDS011;50516;52.272;5.136;2023-07-31T10:43:39;9.23;;;3.15;;
64199;SDS011;50516;52.272;5.136;2023-07-31T10:46:08;7.85;;;3.25;;
64199;SDS011;50516;52.272;5.136;2023-07-31T10:48:34;8.70;;;3.50;;
64199;SDS011;50516;52.272;5.136;2023-07-31T10:51:02;8.18;;;3.30;;
64199;SDS011;50516;52.272;5.136;2023-07-31T10:53:35;7.22;;;3.10;;
64199;SDS011;50516;52.272;5.136;2023-07-31T10:56:02;7.00;;;3.22;;
64199;SDS011;50516;52.272;5.136;2023-07-31T10:58:29;9.10;;;3.20;;
64199;SDS011;50516;52.272;5.136;2023-07-31T11:00:57;7.45;;;3.10;;
64199;SDS011;50516;52.272;5.136;2023-07-31T11:03:29;9.32;;;3.38;;
64199;SDS011;50516;52.272;5.136;2023-07-31T11:06:09;6.72;;;2.80;;
64199;SDS011;50516;52.272;5.136;2023-07-31T11:08:36;6.80;;;2.85;;
64199;SDS011;50516;52.272;5.136;2023-07-31T11:11:08;7.18;;;3.00;;
64199;SDS011;50516;52.272;5.136;2023-07-31T11:16:05;4.68;;;2.67;;
64199;SDS011;50516;52.272;5.136;2023-07-31T11:18:31;9.85;;;3.35;;
64199;SDS011;50516;52.272;5.136;2023-07-31T11:20:56;6.65;;;3.25;;
64199;SDS011;50516;52.272;5.136;2023-07-31T11:23:22;5.57;;;2.90;;
64199;SDS011;50516;52.272;5.136;2023-07-31T11:25:48;7.03;;;3.47;;
64199;SDS011;50516;52.272;5.136;2023-07-31T11:28:15;7.63;;;3.53;;
64199;SDS011;50516;52.272;5.136;2023-07-31T11:30:42;6.28;;;3.03;;
64199;SDS011;50516;52.272;5.136;2023-07-31T11:33:09;11.73;;;4.25;;
64199;SDS011;50516;52.272;5.136;2023-07-31T11:35:40;9.77;;;3.40;;
64199;SDS011;50516;52.272;5.136;2023-07-31T11:38:08;12.10;;;3.42;;
64199;SDS011;50516;52.272;5.136;2023-07-31T11:40:43;7.80;;;3.92;;
64199;SDS011;50516;52.272;5.136;2023-07-31T11:43:09;12.65;;;4.10;;
64199;SDS011;50516;52.272;5.136;2023-07-31T11:45:36;8.48;;;3.70;;
64199;SDS011;50516;52.272;5.136;2023-07-31T11:48:04;14.43;;;4.05;;
64199;SDS011;50516;52.272;5.136;2023-07-31T11:50:30;13.13;;;4.00;;
64199;SDS011;50516;52.272;5.136;2023-07-31T11:52:59;11.65;;;4.10;;
64199;SDS011;50516;52.272;5.136;2023-07-31T11:55:28;13.05;;;3.42;;
64199;SDS011;50516;52.272;5.136;2023-07-31T11:57:56;8.68;;;4.03;;
64199;SDS011;50516;52.272;5.136;2023-07-31T12:00:23;11.52;;;4.20;;
64199;SDS011;50516;52.272;5.136;2023-07-31T12:02:50;7.25;;;3.85;;
64199;SDS011;50516;52.272;5.136;2023-07-31T12:05:16;10.18;;;3.50;;
64199;SDS011;50516;52.272;5.136;2023-07-31T12:07:52;8.93;;;3.45;;
64199;SDS011;50516;52.272;5.136;2023-07-31T12:10:28;11.50;;;3.88;;
64199;SDS011;50516;52.272;5.136;2023-07-31T12:12:59;9.57;;;3.78;;
64199;SDS011;50516;52.272;5.136;2023-07-31T12:15:32;10.98;;;3.67;;
64199;SDS011;50516;52.272;5.136;2023-07-31T12:18:11;13.10;;;3.55;;
64199;SDS011;50516;52.272;5.136;2023-07-31T12:20:41;9.98;;;3.50;;
64199;SDS011;50516;52.272;5.136;2023-07-31T12:23:12;11.07;;;3.33;;
64199;SDS011;50516;52.272;5.136;2023-07-31T12:25:42;11.95;;;3.28;;
64199;SDS011;50516;52.272;5.136;2023-07-31T12:28:07;8.63;;;3.78;;
64199;SDS011;50516;52.272;5.136;2023-07-31T12:30:36;11.85;;;3.70;;
64199;SDS011;50516;52.272;5.136;2023-07-31T12:33:14;9.35;;;3.92;;
64199;SDS011;50516;52.272;5.136;2023-07-31T12:35:41;10.68;;;3.55;;
64199;SDS011;50516;52.272;5.136;2023-07-31T12:38:09;12.43;;;3.40;;
64199;SDS011;50516;52.272;5.136;2023-07-31T12:40:36;7.75;;;3.00;;
64199;SDS011;50516;52.272;5.136;2023-07-31T12:43:03;8.95;;;3.20;;
64199;SDS011;50516;52.272;5.136;2023-07-31T12:45:28;12.30;;;3.85;;
64199;SDS011;50516;52.272;5.136;2023-07-31T12:47:54;9.60;;;3.33;;
64199;SDS011;50516;52.272;5.136;2023-07-31T12:50:20;11.38;;;3.20;;
64199;SDS011;50516;52.272;5.136;2023-07-31T12:52:45;13.05;;;3.47;;
64199;SDS011;50516;52.272;5.136;2023-07-31T12:55:10;7.57;;;3.40;;
64199;SDS011;50516;52.272;5.136;2023-07-31T12:57:36;11.27;;;3.70;;
64199;SDS011;50516;52.272;5.136;2023-07-31T13:00:02;8.95;;;2.95;;
64199;SDS011;50516;52.272;5.136;2023-07-31T13:02:28;7.95;;;2.90;;
64199;SDS011;50516;52.272;5.136;2023-07-31T13:04:53;10.63;;;3.40;;
64199;SDS011;50516;52.272;5.136;2023-07-31T13:07:19;7.45;;;3.13;;
64199;SDS011;50516;52.272;5.136;2023-07-31T13:09:44;7.57;;;3.08;;
64199;SDS011;50516;52.272;5.136;2023-07-31T13:12:10;8.38;;;3.20;;
64199;SDS011;50516;52.272;5.136;2023-07-31T13:14:35;9.05;;;3.15;;
64199;SDS011;50516;52.272;5.136;2023-07-31T13:17:00;10.50;;;3.63;;
64199;SDS011;50516;52.272;5.136;2023-07-31T13:19:26;6.72;;;2.97;;
64199;SDS011;50516;52.272;5.136;2023-07-31T13:21:51;8.27;;;3.03;;
64199;SDS011;50516;52.272;5.136;2023-07-31T13:24:16;9.73;;;3.47;;
64199;SDS011;50516;52.272;5.136;2023-07-31T13:26:42;8.70;;;3.08;;
64199;SDS011;50516;52.272;5.136;2023-07-31T13:29:07;5.88;;;2.85;;
64199;SDS011;50516;52.272;5.136;2023-07-31T13:31:32;9.60;;;3.15;;
64199;SDS011;50516;52.272;5.136;2023-07-31T13:33:58;5.78;;;3.38;;
64199;SDS011;50516;52.272;5.136;2023-07-31T13:36:23;8.38;;;3.08;;
64199;SDS011;50516;52.272;5.136;2023-07-31T13:38:49;10.63;;;3.10;;
64199;SDS011;50516;52.272;5.136;2023-07-31T13:41:14;9.05;;;3.38;;
64199;SDS011;50516;52.272;5.136;2023-07-31T13:43:39;8.18;;;3.05;;
64199;SDS011;50516;52.272;5.136;2023-07-31T13:46:06;8.55;;;3.40;;
64199;SDS011;50516;52.272;5.136;2023-07-31T13:48:35;8.15;;;2.88;;
64199;SDS011;50516;52.272;5.136;2023-07-31T13:51:01;7.20;;;3.25;;
64199;SDS011;50516;52.272;5.136;2023-07-31T13:53:26;5.97;;;2.70;;
64199;SDS011;50516;52.272;5.136;2023-07-31T13:55:51;6.47;;;2.88;;
64199;SDS011;50516;52.272;5.136;2023-07-31T13:58:17;4.10;;;2.63;;
64199;SDS011;50516;52.272;5.136;2023-07-31T14:00:42;4.53;;;3.08;;
64199;SDS011;50516;52.272;5.136;2023-07-31T14:03:08;4.30;;;2.42;;
64199;SDS011;50516;52.272;5.136;2023-07-31T14:05:33;4.88;;;2.20;;
64199;SDS011;50516;52.272;5.136;2023-07-31T14:07:58;4.20;;;2.20;;
64199;SDS011;50516;52.272;5.136;2023-07-31T14:10:24;2.45;;;2.10;;
64199;SDS011;50516;52.272;5.136;2023-07-31T14:12:49;4.50;;;2.28;;
64199;SDS011;50516;52.272;5.136;2023-07-31T14:15:14;5.95;;;2.15;;
64199;SDS011;50516;52.272;5.136;2023-07-31T14:17:40;3.85;;;2.50;;
64199;SDS011;50516;52.272;5.136;2023-07-31T14:20:05;3.53;;;2.00;;
64199;SDS011;50516;52.272;5.136;2023-07-31T14:22:31;4.10;;;2.55;;
64199;SDS011;50516;52.272;5.136;2023-07-31T14:24:58;8.23;;;2.78;;
64199;SDS011;50516;52.272;5.136;2023-07-31T14:27:23;5.82;;;2.35;;
64199;SDS011;50516;52.272;5.136;2023-07-31T14:29:49;3.72;;;2.25;;
64199;SDS011;50516;52.272;5.136;2023-07-31T14:32:14;3.78;;;1.90;;
64199;SDS011;50516;52.272;5.136;2023-07-31T14:34:40;3.63;;;2.00;;
64199;SDS011;50516;52.272;5.136;2023-07-31T14:37:06;4.78;;;2.03;;
64199;SDS011;50516;52.272;5.136;2023-07-31T14:39:31;2.00;;;1.80;;
64199;SDS011;50516;52.272;5.136;2023-07-31T14:41:56;3.45;;;1.90;;
64199;SDS011;50516;52.272;5.136;2023-07-31T14:44:21;5.35;;;2.00;;
64199;SDS011;50516;52.272;5.136;2023-07-31T14:46:47;3.85;;;2.08;;